Needham Market, United Kingdom
Current Conditions -  °F | °C
As of 1:50 AM on Monday 26 Jan 2015 (Local Time) from EGUW Reporting Station
Haze Haze  
Wind Chill: 38°   Ceiling: 5000
Heat Index: 43°   Visibility: 4mi
Dew Point: 43°   Wind: 8mph
Humidity: 100%   Direction: 240°WSW
Pressure: 30.18"   Gusts: NA
Location:  52.16°N, 1.05°E
Report Text: EGUW 260150Z AUTO 24007KT 7000 BR SCT008/// BKN050/// BKN090/// 06/06 Q1022 RERA
Loading
Personal Weather Stations






























Interactive Weather Map New forecast layout! Learn more

10-Day Weather Forecast

Advertisements
Track Severe Weather on mobile